Time;durP1;ratioP1;P1;durP2;ratioP2;P2;SDS_P1;SDS_P2;PMS_P1;PMS_P2;Temp;Humidity;BMP_temperature;BMP_pressure;BME280_temperature;BME280_humidity;BME280_pressure;Samples;Min_cycle;Max_cycle;Signal;HPM_P1;HPM_P2
2022/08/29 00:01:56;;;;;;;7.13;2.77;;;;;;;;;;5048239;28;20071;-61
2022/08/29 00:04:22;;;;;;;9.03;3.00;;;;;;;;;;5047639;28;20049;-61
2022/08/29 00:06:48;;;;;;;6.20;2.83;;;;;;;;;;5047343;28;20045;-61
2022/08/29 00:09:14;;;;;;;6.37;3.00;;;;;;;;;;5048138;28;20400;-61
2022/08/29 00:11:40;;;;;;;6.70;2.73;;;;;;;;;;5047584;28;20040;-61
2022/08/29 00:14:06;;;;;;;6.90;2.87;;;;;;;;;;5046744;28;20072;-61
2022/08/29 00:16:32;;;;;;;10.20;3.03;;;;;;;;;;5047840;28;20045;-61
2022/08/29 00:18:58;;;;;;;6.27;2.73;;;;;;;;;;5047999;28;20120;-61
2022/08/29 00:21:25;;;;;;;9.30;3.43;;;;;;;;;;5047065;28;20120;-61
2022/08/29 00:23:51;;;;;;;7.50;2.97;;;;;;;;;;5047260;28;20052;-61
2022/08/29 00:26:17;;;;;;;8.37;2.87;;;;;;;;;;5047655;28;20594;-61
2022/08/29 00:28:43;;;;;;;9.67;3.20;;;;;;;;;;5047473;28;20040;-61
2022/08/29 00:31:09;;;;;;;5.67;2.87;;;;;;;;;;5049821;28;20483;-60
2022/08/29 00:33:35;;;;;;;6.60;3.20;;;;;;;;;;5050631;28;20048;-61
2022/08/29 00:36:01;;;;;;;5.87;2.73;;;;;;;;;;5051584;28;20044;-61
2022/08/29 00:38:27;;;;;;;6.20;3.27;;;;;;;;;;5051266;28;20045;-61
2022/08/29 00:40:54;;;;;;;5.93;2.83;;;;;;;;;;5051401;28;20174;-61
2022/08/29 00:43:23;;;;;;;7.43;3.33;;;;;;;;;;5051304;28;20491;-61
2022/08/29 00:46:10;;;;;;;7.37;2.77;;;;;;;;;;5050280;28;20106;-61
2022/08/29 00:48:37;;;;;;;8.47;2.90;;;;;;;;;;5049393;28;20057;-61
2022/08/29 00:51:06;;;;;;;7.50;2.83;;;;;;;;;;5051379;28;20049;-61
2022/08/29 00:53:41;;;;;;;10.70;3.10;;;;;;;;;;5051240;28;20053;-61
2022/08/29 00:56:08;;;;;;;8.80;3.37;;;;;;;;;;5050562;28;20053;-61
2022/08/29 00:58:35;;;;;;;8.50;3.43;;;;;;;;;;5050324;28;20041;-61
2022/08/29 01:01:01;;;;;;;7.37;3.10;;;;;;;;;;5050832;28;20033;-61
2022/08/29 01:03:32;;;;;;;9.90;3.10;;;;;;;;;;5050638;28;20049;-61
2022/08/29 01:05:58;;;;;;;6.33;3.37;;;;;;;;;;5043416;28;20075;-61
2022/08/29 01:08:24;;;;;;;6.97;3.00;;;;;;;;;;5050494;28;20115;-61
2022/08/29 01:13:38;;;;;;;8.83;2.87;;;;;;;;;;5050481;28;20045;-61
2022/08/29 01:16:04;;;;;;;6.33;3.40;;;;;;;;;;5050357;28;20411;-61
2022/08/29 01:18:32;;;;;;;10.13;3.67;;;;;;;;;;5050374;28;20174;-61
2022/08/29 01:20:58;;;;;;;6.87;3.20;;;;;;;;;;5049999;28;20658;-61
2022/08/29 01:23:42;;;;;;;8.37;3.10;;;;;;;;;;5050228;28;20053;-61
2022/08/29 01:26:10;;;;;;;6.50;3.07;;;;;;;;;;5050431;28;20045;-61
2022/08/29 01:28:39;;;;;;;8.53;3.40;;;;;;;;;;5050192;28;20049;-61
2022/08/29 01:31:09;;;;;;;6.63;3.60;;;;;;;;;;5042525;28;20782;-61
2022/08/29 01:33:41;;;;;;;8.73;3.70;;;;;;;;;;5050162;28;20078;-61
2022/08/29 01:36:09;;;;;;;7.93;4.23;;;;;;;;;;5050152;28;20041;-61
2022/08/29 01:38:35;;;;;;;7.17;3.07;;;;;;;;;;5049627;28;20490;-61
2022/08/29 01:41:02;;;;;;;8.90;3.00;;;;;;;;;;5050340;28;20041;-61
2022/08/29 01:43:28;;;;;;;8.83;4.23;;;;;;;;;;5049233;28;20061;-61
2022/08/29 01:45:56;;;;;;;11.70;3.20;;;;;;;;;;5049082;28;20047;-61
2022/08/29 01:48:22;;;;;;;9.13;3.27;;;;;;;;;;5049541;28;20045;-61
2022/08/29 01:50:48;;;;;;;9.20;3.67;;;;;;;;;;5048833;28;20048;-61
2022/08/29 01:53:14;;;;;;;11.73;3.63;;;;;;;;;;5049927;28;20040;-61
2022/08/29 01:55:41;;;;;;;5.40;3.20;;;;;;;;;;5049197;28;20059;-61
2022/08/29 01:58:07;;;;;;;7.73;3.17;;;;;;;;;;5049727;28;20048;-61
2022/08/29 02:00:34;;;;;;;8.53;3.33;;;;;;;;;;5049085;28;20048;-61
2022/08/29 02:03:02;;;;;;;6.73;3.67;;;;;;;;;;5049293;28;20518;-61
2022/08/29 02:05:29;;;;;;;8.67;3.27;;;;;;;;;;5048170;28;20051;-61
2022/08/29 02:07:55;;;;;;;7.90;2.90;;;;;;;;;;5049896;28;20473;-61
2022/08/29 02:10:22;;;;;;;9.47;3.37;;;;;;;;;;5049873;28;20044;-62
2022/08/29 02:12:48;;;;;;;10.57;3.97;;;;;;;;;;5049824;28;20044;-60
2022/08/29 02:15:15;;;;;;;9.70;3.00;;;;;;;;;;5049350;28;20099;-61
2022/08/29 02:17:41;;;;;;;12.57;4.13;;;;;;;;;;5048701;28;20048;-61
2022/08/29 02:20:08;;;;;;;8.37;3.27;;;;;;;;;;5049594;28;20049;-61
2022/08/29 02:22:37;;;;;;;10.83;3.60;;;;;;;;;;5049130;28;20584;-61
2022/08/29 02:25:40;;;;;;;10.13;3.27;;;;;;;;;;5049409;28;20049;-61
2022/08/29 02:27:51;;;;;;;10.23;3.80;;;;;;;;;;5047524;28;20040;-61
2022/08/29 02:30:18;;;;;;;7.33;3.50;;;;;;;;;;5048866;28;20499;-61
2022/08/29 02:32:44;;;;;;;6.97;3.53;;;;;;;;;;5048539;28;20091;-61
2022/08/29 02:35:10;;;;;;;7.33;3.50;;;;;;;;;;5049022;28;20045;-61
2022/08/29 02:37:36;;;;;;;9.07;3.83;;;;;;;;;;5048832;28;20044;-61
2022/08/29 02:40:02;;;;;;;6.83;3.40;;;;;;;;;;5048954;28;20052;-61
2022/08/29 02:42:28;;;;;;;11.47;3.47;;;;;;;;;;5048992;28;20037;-61
2022/08/29 02:44:54;;;;;;;10.77;3.53;;;;;;;;;;5047974;28;20041;-61
2022/08/29 02:47:20;;;;;;;12.07;4.13;;;;;;;;;;5048616;28;20045;-61
2022/08/29 02:49:46;;;;;;;8.37;4.23;;;;;;;;;;5048805;28;20432;-61
2022/08/29 02:52:13;;;;;;;9.87;3.53;;;;;;;;;;5048584;28;20056;-61
2022/08/29 02:54:39;;;;;;;10.83;4.03;;;;;;;;;;5048082;28;20049;-61
2022/08/29 02:57:05;;;;;;;14.07;4.07;;;;;;;;;;5048616;28;20553;-62
2022/08/29 02:59:31;;;;;;;8.00;4.00;;;;;;;;;;5047791;28;20049;-61
2022/08/29 03:01:58;;;;;;;6.60;3.27;;;;;;;;;;5048829;28;20037;-61
2022/08/29 03:04:24;;;;;;;9.13;3.53;;;;;;;;;;5048927;28;20506;-61
2022/08/29 03:06:50;;;;;;;8.00;4.13;;;;;;;;;;5047782;28;20068;-61
2022/08/29 03:09:16;;;;;;;10.07;3.40;;;;;;;;;;5048361;28;20045;-61
2022/08/29 03:11:42;;;;;;;11.33;3.73;;;;;;;;;;5047020;28;20655;-61
2022/08/29 03:14:08;;;;;;;8.97;3.27;;;;;;;;;;5048392;28;20037;-61
2022/08/29 03:16:34;;;;;;;9.80;3.57;;;;;;;;;;5048305;28;20045;-61
2022/08/29 03:19:00;;;;;;;10.13;3.80;;;;;;;;;;5047977;28;20414;-61
2022/08/29 03:21:26;;;;;;;11.50;3.83;;;;;;;;;;5048377;28;20099;-61
2022/08/29 03:23:54;;;;;;;8.87;3.20;;;;;;;;;;5048179;28;20113;-61
2022/08/29 03:26:20;;;;;;;8.10;3.30;;;;;;;;;;5048468;28;20533;-61
2022/08/29 03:28:47;;;;;;;9.70;3.83;;;;;;;;;;5047732;28;20051;-61
2022/08/29 03:31:13;;;;;;;10.40;3.70;;;;;;;;;;5047949;28;20040;-61
2022/08/29 03:33:39;;;;;;;7.90;3.77;;;;;;;;;;5047251;28;20053;-61
2022/08/29 03:36:05;;;;;;;5.63;3.37;;;;;;;;;;5048120;28;20392;-61
2022/08/29 03:38:31;;;;;;;7.03;3.27;;;;;;;;;;5047983;28;20041;-62
2022/08/29 03:40:57;;;;;;;8.07;3.87;;;;;;;;;;5048539;28;20048;-61
2022/08/29 03:43:23;;;;;;;6.13;3.43;;;;;;;;;;5048015;28;20052;-61
2022/08/29 03:45:50;;;;;;;8.47;3.37;;;;;;;;;;5047592;28;20037;-61
2022/08/29 03:48:16;;;;;;;5.90;3.27;;;;;;;;;;5048207;28;20060;-61
2022/08/29 03:50:42;;;;;;;8.57;2.77;;;;;;;;;;5048162;28;20048;-61
2022/08/29 03:53:08;;;;;;;8.10;3.83;;;;;;;;;;5047984;28;20045;-61
2022/08/29 03:55:34;;;;;;;10.93;3.87;;;;;;;;;;5047734;28;20434;-61
2022/08/29 03:58:00;;;;;;;7.00;3.07;;;;;;;;;;5047823;28;20056;-61
2022/08/29 04:00:26;;;;;;;10.90;3.60;;;;;;;;;;5047716;28;20045;-61
2022/08/29 04:02:54;;;;;;;11.03;4.10;;;;;;;;;;5048226;28;20422;-61
2022/08/29 04:05:20;;;;;;;7.30;3.90;;;;;;;;;;5048942;28;20041;-61
2022/08/29 04:07:46;;;;;;;8.47;3.70;;;;;;;;;;5051259;28;20092;-61
2022/08/29 04:10:14;;;;;;;8.37;4.27;;;;;;;;;;5051444;28;20048;-61
2022/08/29 04:12:40;;;;;;;9.03;3.70;;;;;;;;;;5051327;28;20066;-61
2022/08/29 04:15:07;;;;;;;12.73;4.00;;;;;;;;;;5051530;28;20540;-61
2022/08/29 04:17:33;;;;;;;8.43;3.67;;;;;;;;;;5051749;28;20045;-61
2022/08/29 04:19:59;;;;;;;8.43;3.60;;;;;;;;;;5051212;28;20045;-61
2022/08/29 04:22:25;;;;;;;7.00;4.00;;;;;;;;;;5051329;28;20075;-61
2022/08/29 04:24:52;;;;;;;12.00;4.20;;;;;;;;;;5051276;28;20048;-61
2022/08/29 04:27:18;;;;;;;9.57;4.00;;;;;;;;;;5052017;28;20040;-61
2022/08/29 04:29:47;;;;;;;8.33;4.00;;;;;;;;;;5048435;28;20049;-60
2022/08/29 04:32:13;;;;;;;9.70;3.90;;;;;;;;;;5041580;28;20053;-61
2022/08/29 04:34:39;;;;;;;8.10;4.23;;;;;;;;;;5045626;28;20522;-61
2022/08/29 04:37:05;;;;;;;8.00;4.00;;;;;;;;;;5051163;28;20414;-62
2022/08/29 04:39:31;;;;;;;8.47;3.77;;;;;;;;;;5051325;28;20068;-61
2022/08/29 04:41:57;;;;;;;9.43;3.70;;;;;;;;;;5051161;28;20049;-61
2022/08/29 04:44:23;;;;;;;9.13;3.97;;;;;;;;;;5050583;28;20036;-61
2022/08/29 04:46:49;;;;;;;9.10;3.80;;;;;;;;;;5051091;28;20474;-61
2022/08/29 04:49:15;;;;;;;10.10;4.40;;;;;;;;;;5049279;28;20048;-61
2022/08/29 04:51:41;;;;;;;8.93;4.33;;;;;;;;;;5050693;28;20067;-61
2022/08/29 04:54:07;;;;;;;10.00;4.00;;;;;;;;;;5050837;28;20060;-61
2022/08/29 04:56:36;;;;;;;8.13;3.63;;;;;;;;;;5050341;28;20092;-61
2022/08/29 04:59:02;;;;;;;12.50;3.67;;;;;;;;;;5050677;28;20392;-61
2022/08/29 05:01:28;;;;;;;8.77;4.10;;;;;;;;;;5050594;28;20037;-61
2022/08/29 05:03:55;;;;;;;12.37;4.20;;;;;;;;;;5050800;28;20045;-61
2022/08/29 05:06:22;;;;;;;11.30;4.80;;;;;;;;;;5049718;28;20041;-61
2022/08/29 05:08:48;;;;;;;13.27;4.17;;;;;;;;;;5050273;28;20477;-63
2022/08/29 05:11:18;;;;;;;10.90;3.80;;;;;;;;;;5050185;28;20049;-61
2022/08/29 05:13:45;;;;;;;9.87;4.57;;;;;;;;;;5049298;28;20063;-61
2022/08/29 05:16:12;;;;;;;14.80;4.10;;;;;;;;;;5049278;28;20049;-61
2022/08/29 05:18:38;;;;;;;9.43;3.77;;;;;;;;;;5049628;28;20049;-62
2022/08/29 05:21:05;;;;;;;9.37;4.60;;;;;;;;;;5050163;28;20071;-61
2022/08/29 05:23:31;;;;;;;8.97;3.83;;;;;;;;;;5049812;28;20135;-61
2022/08/29 05:26:01;;;;;;;9.97;4.10;;;;;;;;;;5049380;28;20047;-61
2022/08/29 05:28:28;;;;;;;11.07;4.30;;;;;;;;;;5050287;28;20517;-61
2022/08/29 05:30:54;;;;;;;9.63;4.00;;;;;;;;;;5049407;28;20052;-61
2022/08/29 05:33:21;;;;;;;7.73;4.10;;;;;;;;;;5050517;28;20552;-61
2022/08/29 05:35:47;;;;;;;10.00;4.13;;;;;;;;;;5050066;28;20056;-61
2022/08/29 05:38:13;;;;;;;12.13;4.70;;;;;;;;;;5049597;28;20121;-61
2022/08/29 05:40:40;;;;;;;6.67;4.00;;;;;;;;;;5049410;28;20049;-61
2022/08/29 05:43:06;;;;;;;7.33;3.97;;;;;;;;;;5049692;28;20503;-61
2022/08/29 05:45:32;;;;;;;10.50;4.13;;;;;;;;;;5048920;28;20123;-61
2022/08/29 05:48:02;;;;;;;9.67;4.20;;;;;;;;;;5050103;28;20043;-61
2022/08/29 05:50:28;;;;;;;8.13;4.03;;;;;;;;;;5048222;28;20475;-61
2022/08/29 05:52:54;;;;;;;9.50;3.93;;;;;;;;;;5049221;28;20402;-61
2022/08/29 05:55:20;;;;;;;12.27;3.70;;;;;;;;;;5049272;28;20041;-61
2022/08/29 05:57:48;;;;;;;11.37;4.50;;;;;;;;;;5049172;28;20037;-61
2022/08/29 06:00:15;;;;;;;8.10;4.23;;;;;;;;;;5049202;28;20109;-61
2022/08/29 06:02:41;;;;;;;9.70;4.73;;;;;;;;;;5049699;28;20818;-61
2022/08/29 06:05:07;;;;;;;11.23;4.30;;;;;;;;;;5049045;28;20045;-61
2022/08/29 06:07:34;;;;;;;9.40;4.30;;;;;;;;;;5049258;28;20091;-61
2022/08/29 06:10:00;;;;;;;10.60;4.10;;;;;;;;;;5049045;28;20041;-61
2022/08/29 06:12:26;;;;;;;15.43;4.20;;;;;;;;;;5048821;28;20041;-61
2022/08/29 06:14:52;;;;;;;8.73;4.07;;;;;;;;;;5049202;28;20045;-61
2022/08/29 06:17:19;;;;;;;8.67;3.50;;;;;;;;;;5048808;28;20091;-61
2022/08/29 06:19:45;;;;;;;9.10;3.23;;;;;;;;;;5048699;28;20041;-61
2022/08/29 06:22:11;;;;;;;11.03;3.87;;;;;;;;;;5049060;28;20044;-61
2022/08/29 06:24:38;;;;;;;6.93;3.70;;;;;;;;;;5048940;28;20045;-61
2022/08/29 06:27:04;;;;;;;8.73;3.67;;;;;;;;;;5048711;28;20147;-61
2022/08/29 06:29:30;;;;;;;10.00;3.50;;;;;;;;;;5048113;28;20045;-61
2022/08/29 06:31:56;;;;;;;7.43;3.70;;;;;;;;;;5048680;28;20131;-61
2022/08/29 06:34:22;;;;;;;11.10;4.33;;;;;;;;;;5048773;28;20080;-61
2022/08/29 06:36:50;;;;;;;9.63;4.00;;;;;;;;;;5048336;28;20044;-61
2022/08/29 06:39:16;;;;;;;9.17;4.17;;;;;;;;;;5048372;28;20096;-61
2022/08/29 06:41:42;;;;;;;9.10;4.07;;;;;;;;;;5048489;28;20380;-61
2022/08/29 06:44:09;;;;;;;10.20;3.97;;;;;;;;;;5048677;28;20095;-61
2022/08/29 06:46:37;;;;;;;8.93;3.57;;;;;;;;;;5048158;28;20037;-61
2022/08/29 06:49:04;;;;;;;8.83;3.83;;;;;;;;;;5048680;28;20033;-60
2022/08/29 06:51:32;;;;;;;16.60;5.00;;;;;;;;;;5048177;28;20402;-60
2022/08/29 06:54:02;;;;;;;8.73;3.50;;;;;;;;;;5047864;28;20040;-60
2022/08/29 06:56:28;;;;;;;6.80;3.10;;;;;;;;;;5047854;28;20076;-60
2022/08/29 06:58:55;;;;;;;7.80;3.50;;;;;;;;;;5048663;28;20418;-62
2022/08/29 07:01:22;;;;;;;10.83;4.20;;;;;;;;;;5048175;28;20052;-60
2022/08/29 07:03:48;;;;;;;7.70;2.93;;;;;;;;;;5047774;28;20056;-60
2022/08/29 07:06:15;;;;;;;9.60;3.90;;;;;;;;;;5047817;28;20045;-60
2022/08/29 07:08:41;;;;;;;8.60;3.07;;;;;;;;;;5047614;28;20414;-60
2022/08/29 07:11:07;;;;;;;6.03;3.37;;;;;;;;;;5039880;28;20045;-60
2022/08/29 07:13:34;;;;;;;7.57;3.33;;;;;;;;;;5048216;28;20037;-60
2022/08/29 07:16:00;;;;;;;8.07;3.17;;;;;;;;;;5046927;28;20064;-60
2022/08/29 07:18:26;;;;;;;6.50;3.43;;;;;;;;;;5047681;28;20403;-60
2022/08/29 07:20:53;;;;;;;7.73;3.20;;;;;;;;;;5047669;28;20435;-60
2022/08/29 07:23:19;;;;;;;7.37;2.97;;;;;;;;;;5048115;28;20445;-60
2022/08/29 07:25:45;;;;;;;8.17;3.00;;;;;;;;;;5048167;28;20076;-60
2022/08/29 07:28:11;;;;;;;8.73;3.10;;;;;;;;;;5047765;28;20049;-60
2022/08/29 07:30:37;;;;;;;8.97;3.10;;;;;;;;;;5047851;28;20057;-60
2022/08/29 07:33:04;;;;;;;6.90;3.07;;;;;;;;;;5048018;28;20118;-61
2022/08/29 07:35:30;;;;;;;7.47;2.60;;;;;;;;;;5047985;28;20129;-61
2022/08/29 07:37:57;;;;;;;12.70;2.70;;;;;;;;;;5047242;28;20041;-61
2022/08/29 07:40:23;;;;;;;7.30;2.57;;;;;;;;;;5050498;28;20088;-61
2022/08/29 07:42:49;;;;;;;6.13;2.20;;;;;;;;;;5054562;28;20379;-61
2022/08/29 07:45:16;;;;;;;6.70;2.27;;;;;;;;;;5054134;28;20076;-60
2022/08/29 07:47:43;;;;;;;7.83;2.30;;;;;;;;;;5054940;28;20127;-61
2022/08/29 07:50:10;;;;;;;4.30;2.00;;;;;;;;;;5054100;28;20045;-60
2022/08/29 07:52:36;;;;;;;7.83;2.23;;;;;;;;;;5053999;28;20787;-61
2022/08/29 07:55:04;;;;;;;10.87;2.40;;;;;;;;;;5053533;28;20122;-61
2022/08/29 07:57:30;;;;;;;5.43;2.33;;;;;;;;;;5055223;28;20453;-60
2022/08/29 07:59:56;;;;;;;10.50;1.97;;;;;;;;;;5044390;28;20163;-61
2022/08/29 08:02:22;;;;;;;8.97;2.23;;;;;;;;;;5053906;28;20188;-61
2022/08/29 08:04:48;;;;;;;5.03;1.83;;;;;;;;;;5054825;28;20482;-61
2022/08/29 08:07:15;;;;;;;9.73;2.50;;;;;;;;;;5053876;28;20045;-61
2022/08/29 08:09:41;;;;;;;9.80;2.20;;;;;;;;;;5053979;28;20429;-61
2022/08/29 08:12:08;;;;;;;7.40;1.97;;;;;;;;;;5054009;28;20091;-61
2022/08/29 08:14:35;;;;;;;8.73;2.80;;;;;;;;;;5054069;28;20049;-61
2022/08/29 08:17:01;;;;;;;6.87;1.90;;;;;;;;;;5053977;28;20406;-61
2022/08/29 08:19:27;;;;;;;5.00;1.93;;;;;;;;;;5053801;28;20037;-61
2022/08/29 08:21:53;;;;;;;10.20;2.20;;;;;;;;;;5053618;28;20056;-61
2022/08/29 08:24:19;;;;;;;6.97;2.40;;;;;;;;;;5053718;28;20422;-62
2022/08/29 08:26:45;;;;;;;6.20;2.23;;;;;;;;;;5053944;28;20051;-61
2022/08/29 08:29:11;;;;;;;5.97;1.67;;;;;;;;;;5053837;28;20124;-61
2022/08/29 08:31:48;;;;;;;5.07;1.80;;;;;;;;;;5053902;28;20045;-62
2022/08/29 08:34:15;;;;;;;6.20;1.80;;;;;;;;;;5054334;28;20156;-62
2022/08/29 08:36:43;;;;;;;7.60;2.10;;;;;;;;;;5053844;28;20420;-61
2022/08/29 08:39:09;;;;;;;10.33;2.00;;;;;;;;;;5053243;28;20128;-62
2022/08/29 08:41:48;;;;;;;6.20;1.70;;;;;;;;;;5053594;28;20047;-62
2022/08/29 08:44:23;;;;;;;7.23;2.40;;;;;;;;;;5054008;28;20049;-62
2022/08/29 08:46:54;;;;;;;4.50;1.70;;;;;;;;;;5053696;28;20495;-62
2022/08/29 08:49:20;;;;;;;5.50;1.83;;;;;;;;;;5054179;28;20069;-62
2022/08/29 08:51:50;;;;;;;5.03;1.83;;;;;;;;;;5052027;28;20049;-61
2022/08/29 08:54:20;;;;;;;9.13;2.20;;;;;;;;;;5050661;28;20099;-62
2022/08/29 08:56:48;;;;;;;5.50;1.70;;;;;;;;;;5050692;28;20632;-61
2022/08/29 08:59:19;;;;;;;6.55;1.60;;;;;;;;;;5050556;28;20430;-61
2022/08/29 09:01:54;;;;;;;8.13;2.45;;;;;;;;;;5050414;28;20098;-62
2022/08/29 09:04:29;;;;;;;6.07;1.83;;;;;;;;;;5050235;28;20132;-61
2022/08/29 09:06:58;;;;;;;9.27;1.60;;;;;;;;;;5050757;28;20041;-62
2022/08/29 09:09:42;;;;;;;5.93;2.03;;;;;;;;;;5050298;28;20133;-61
2022/08/29 09:12:27;;;;;;;5.78;1.80;;;;;;;;;;5050118;28;20055;-62
2022/08/29 09:14:55;;;;;;;6.38;2.00;;;;;;;;;;5050980;28;20125;-62
2022/08/29 09:17:24;;;;;;;8.35;1.55;;;;;;;;;;5050279;28;20148;-62
2022/08/29 09:19:50;;;;;;;5.70;2.10;;;;;;;;;;5049928;28;20056;-61
2022/08/29 09:22:22;;;;;;;6.13;1.90;;;;;;;;;;5050494;28;20084;-61
2022/08/29 09:24:54;;;;;;;8.02;1.83;;;;;;;;;;5050194;28;20037;-62
2022/08/29 09:27:22;;;;;;;6.47;2.03;;;;;;;;;;5049832;28;20098;-61
2022/08/29 09:29:49;;;;;;;7.55;2.25;;;;;;;;;;5049640;28;20495;-61
2022/08/29 09:32:15;;;;;;;8.30;2.38;;;;;;;;;;5049710;28;20522;-61
2022/08/29 09:34:46;;;;;;;6.32;2.10;;;;;;;;;;5049644;28;20045;-62
2022/08/29 09:37:21;;;;;;;4.13;1.73;;;;;;;;;;5050033;28;20048;-62
2022/08/29 09:39:58;;;;;;;7.38;1.58;;;;;;;;;;5042736;28;20075;-62
2022/08/29 09:42:29;;;;;;;7.55;2.08;;;;;;;;;;5048948;28;20132;-62
2022/08/29 09:44:57;;;;;;;8.35;2.28;;;;;;;;;;5050032;28;20072;-62
2022/08/29 09:47:25;;;;;;;6.75;2.17;;;;;;;;;;5048463;28;20120;-62
2022/08/29 09:50:00;;;;;;;6.88;2.17;;;;;;;;;;5049539;28;20041;-62
2022/08/29 09:52:27;;;;;;;5.75;2.42;;;;;;;;;;5048846;28;20140;-62
2022/08/29 09:54:53;;;;;;;6.78;2.35;;;;;;;;;;5049516;28;20036;-62
2022/08/29 09:57:26;;;;;;;6.32;2.67;;;;;;;;;;5049319;28;20088;-62
2022/08/29 10:00:05;;;;;;;7.35;2.28;;;;;;;;;;5042283;28;20170;-62
2022/08/29 10:02:43;;;;;;;11.02;2.47;;;;;;;;;;5048527;28;20086;-61
2022/08/29 10:05:11;;;;;;;6.68;1.70;;;;;;;;;;5048571;28;20132;-62
2022/08/29 10:07:46;;;;;;;3.67;1.55;;;;;;;;;;5048673;28;20053;-62
2022/08/29 10:10:17;;;;;;;7.13;2.25;;;;;;;;;;5049272;28;20139;-62
2022/08/29 10:12:54;;;;;;;6.20;2.17;;;;;;;;;;5048905;28;20041;-62
2022/08/29 10:15:33;;;;;;;6.45;2.10;;;;;;;;;;5049237;28;20037;-62
2022/08/29 10:18:26;;;;;;;6.45;2.10;;;;;;;;;;5049374;28;20037;-62
2022/08/29 10:21:09;;;;;;;6.20;1.52;;;;;;;;;;5040034;28;20461;-62
2022/08/29 10:23:38;;;;;;;6.55;1.98;;;;;;;;;;5043455;28;20120;-62
2022/08/29 10:26:16;;;;;;;5.38;1.80;;;;;;;;;;5045758;28;20122;-62
2022/08/29 10:28:54;;;;;;;6.70;2.08;;;;;;;;;;5046566;28;20450;-62
2022/08/29 10:31:26;;;;;;;8.88;2.10;;;;;;;;;;5048120;28;20087;-62
2022/08/29 10:33:53;;;;;;;;;;;;;;;;;;5048814;28;20136;-62
2022/08/29 10:36:19;;;;;;;7.90;2.25;;;;;;;;;;5042414;28;19932;-62
2022/08/29 10:38:47;;;;;;;5.45;2.17;;;;;;;;;;5041458;28;20042;-62
2022/08/29 10:41:32;;;;;;;7.28;2.78;;;;;;;;;;5043099;28;20110;-62
2022/08/29 10:44:22;;;;;;;5.72;2.35;;;;;;;;;;5047556;28;20045;-62
2022/08/29 10:46:51;;;;;;;7.88;2.42;;;;;;;;;;5047953;28;20045;-62
2022/08/29 10:49:36;;;;;;;6.47;2.08;;;;;;;;;;5043239;28;20525;-62
2022/08/29 10:52:11;;;;;;;4.45;1.63;;;;;;;;;;5044810;28;20052;-62
2022/08/29 10:54:49;;;;;;;6.03;1.98;;;;;;;;;;5048231;28;20051;-62
2022/08/29 10:57:33;;;;;;;4.93;2.00;;;;;;;;;;5047956;28;20049;-62
2022/08/29 11:00:04;;;;;;;6.88;2.00;;;;;;;;;;5047400;28;20048;-62
2022/08/29 11:02:33;;;;;;;7.50;2.30;;;;;;;;;;5043712;28;20037;-62
2022/08/29 11:05:02;;;;;;;7.82;1.80;;;;;;;;;;5047845;28;20056;-62
2022/08/29 11:07:31;;;;;;;6.18;2.00;;;;;;;;;;5047974;28;20041;-62
2022/08/29 11:10:05;;;;;;;4.30;1.90;;;;;;;;;;5046684;28;20092;-62
2022/08/29 11:12:40;;;;;;;5.70;1.95;;;;;;;;;;5046426;28;20443;-62
2022/08/29 11:15:15;;;;;;;7.25;2.15;;;;;;;;;;5046709;28;20145;-62
2022/08/29 11:17:42;;;;;;;7.47;2.30;;;;;;;;;;5048189;28;20037;-62
2022/08/29 11:20:28;;;;;;;5.07;2.20;;;;;;;;;;5047863;28;20135;-62
2022/08/29 11:22:57;;;;;;;9.38;2.47;;;;;;;;;;5046505;28;20044;-62
2022/08/29 11:25:23;;;;;;;8.52;2.50;;;;;;;;;;5048050;28;20043;-61
2022/08/29 11:27:54;;;;;;;5.25;2.60;;;;;;;;;;5047433;28;20041;-62
2022/08/29 11:30:21;;;;;;;4.03;2.13;;;;;;;;;;5047225;28;20461;-62
2022/08/29 11:32:47;;;;;;;6.47;2.08;;;;;;;;;;5047244;28;20432;-62
2022/08/29 11:35:25;;;;;;;8.05;2.53;;;;;;;;;;5046967;28;20135;-62
2022/08/29 11:38:02;;;;;;;8.05;1.90;;;;;;;;;;5047588;28;20464;-62
2022/08/29 11:40:47;;;;;;;6.70;2.40;;;;;;;;;;5040678;28;20074;-62
2022/08/29 11:43:15;;;;;;;7.63;2.20;;;;;;;;;;5047608;28;20052;-62
2022/08/29 11:45:42;;;;;;;6.70;1.92;;;;;;;;;;5047866;28;20372;-62
2022/08/29 11:48:20;;;;;;;8.63;2.25;;;;;;;;;;5038047;28;20045;-62
2022/08/29 11:50:47;;;;;;;7.20;2.20;;;;;;;;;;5047392;28;20071;-62
2022/08/29 11:53:21;;;;;;;6.60;1.88;;;;;;;;;;5046800;28;20087;-62
2022/08/29 11:56:05;;;;;;;9.02;2.25;;;;;;;;;;5046656;28;20868;-62
2022/08/29 11:58:31;;;;;;;7.25;2.20;;;;;;;;;;5041638;28;20059;-62
2022/08/29 12:00:58;;;;;;;6.43;2.47;;;;;;;;;;5048214;28;20584;-62
2022/08/29 12:03:34;;;;;;;7.65;2.85;;;;;;;;;;5040302;28;20832;-62
2022/08/29 12:06:01;;;;;;;11.38;3.50;;;;;;;;;;5047712;28;20059;-62
2022/08/29 12:08:31;;;;;;;7.93;2.38;;;;;;;;;;5044505;28;20941;-61
2022/08/29 12:10:58;;;;;;;5.72;2.42;;;;;;;;;;5047531;28;20076;-62
2022/08/29 12:13:43;;;;;;;8.55;2.40;;;;;;;;;;5047874;28;20091;-62
2022/08/29 12:16:09;;;;;;;9.05;2.38;;;;;;;;;;5047144;28;20045;-62
2022/08/29 12:18:38;;;;;;;11.52;2.85;;;;;;;;;;5048041;28;20048;-62
2022/08/29 12:21:24;;;;;;;5.20;2.63;;;;;;;;;;5045502;28;20053;-61
2022/08/29 12:23:50;;;;;;;11.35;3.00;;;;;;;;;;5040719;28;20045;-62
2022/08/29 12:26:35;;;;;;;6.75;2.70;;;;;;;;;;5048006;28;20076;-62
2022/08/29 12:29:01;;;;;;;11.30;2.50;;;;;;;;;;5050462;28;20491;-62
2022/08/29 12:31:39;;;;;;;7.90;3.00;;;;;;;;;;5051053;28;20053;-62
2022/08/29 12:34:12;;;;;;;11.68;2.85;;;;;;;;;;5051514;28;20045;-62
2022/08/29 12:36:56;;;;;;;6.45;2.63;;;;;;;;;;5043555;28;20040;-62
2022/08/29 12:39:28;;;;;;;6.82;2.67;;;;;;;;;;5051400;28;20056;-62
2022/08/29 12:41:54;;;;;;;8.70;2.47;;;;;;;;;;5051058;28;20041;-62
2022/08/29 12:44:24;;;;;;;8.23;2.42;;;;;;;;;;5050822;28;20045;-62
2022/08/29 12:46:52;;;;;;;7.00;2.85;;;;;;;;;;5050993;28;20044;-62
2022/08/29 12:49:28;;;;;;;6.18;2.72;;;;;;;;;;5051387;28;20103;-62
2022/08/29 12:52:00;;;;;;;8.00;2.88;;;;;;;;;;5051052;28;20098;-62
2022/08/29 12:54:30;;;;;;;11.70;3.28;;;;;;;;;;5051022;28;20041;-62
2022/08/29 12:56:56;;;;;;;9.73;2.70;;;;;;;;;;5049225;28;20045;-62
2022/08/29 12:59:22;;;;;;;7.88;2.42;;;;;;;;;;5051039;28;20076;-62
2022/08/29 13:01:50;;;;;;;9.63;3.45;;;;;;;;;;5050341;28;20722;-62
2022/08/29 13:04:20;;;;;;;13.70;3.63;;;;;;;;;;5050643;28;20124;-62
2022/08/29 13:06:52;;;;;;;10.55;3.08;;;;;;;;;;5042106;28;20391;-62
2022/08/29 13:09:39;;;;;;;9.80;2.30;;;;;;;;;;5050303;28;20282;-61
2022/08/29 13:12:13;;;;;;;8.05;2.88;;;;;;;;;;5050134;28;20060;-62
2022/08/29 13:14:49;;;;;;;5.60;2.40;;;;;;;;;;5047308;28;20059;-61
2022/08/29 13:17:17;;;;;;;8.25;2.45;;;;;;;;;;5050423;28;20045;-61
2022/08/29 13:20:04;;;;;;;7.50;2.45;;;;;;;;;;5049856;28;20037;-62
2022/08/29 13:22:30;;;;;;;9.93;3.05;;;;;;;;;;5048829;28;20144;-61
2022/08/29 13:25:03;;;;;;;8.98;2.92;;;;;;;;;;5050608;28;20044;-61
2022/08/29 13:27:29;;;;;;;6.80;2.90;;;;;;;;;;5049940;28;20346;-61
2022/08/29 13:29:59;;;;;;;6.47;2.60;;;;;;;;;;5049957;28;20059;-61
2022/08/29 13:32:25;;;;;;;11.63;3.47;;;;;;;;;;5050095;28;20044;-61
2022/08/29 13:35:10;;;;;;;13.35;2.97;;;;;;;;;;5042220;28;20151;-61
2022/08/29 13:37:38;;;;;;;8.07;2.70;;;;;;;;;;5048865;28;20064;-61
2022/08/29 13:40:22;;;;;;;10.93;3.65;;;;;;;;;;5049912;28;20422;-61
2022/08/29 13:42:48;;;;;;;9.57;3.22;;;;;;;;;;5049807;28;20485;-61
2022/08/29 13:45:19;;;;;;;10.20;2.63;;;;;;;;;;5050010;28;20048;-61
2022/08/29 13:47:49;;;;;;;8.93;2.47;;;;;;;;;;5049135;28;20819;-62
2022/08/29 13:50:15;;;;;;;6.00;2.40;;;;;;;;;;5049231;28;20449;-61
2022/08/29 13:52:42;;;;;;;9.57;2.83;;;;;;;;;;5048931;28;20475;-62
2022/08/29 13:55:08;;;;;;;10.35;3.25;;;;;;;;;;5049148;28;20041;-61
2022/08/29 13:57:35;;;;;;;6.13;2.47;;;;;;;;;;5047525;28;20469;-62
2022/08/29 14:00:02;;;;;;;7.22;2.72;;;;;;;;;;5049317;28;20413;-62
2022/08/29 14:02:29;;;;;;;7.97;2.65;;;;;;;;;;5049574;28;20135;-62
2022/08/29 14:04:55;;;;;;;6.88;2.25;;;;;;;;;;5049150;28;20049;-62
2022/08/29 14:07:23;;;;;;;7.13;2.28;;;;;;;;;;5049172;28;20048;-61
2022/08/29 14:09:49;;;;;;;5.57;2.15;;;;;;;;;;5048990;28;20040;-62
2022/08/29 14:12:16;;;;;;;10.43;2.97;;;;;;;;;;5048493;28;20072;-62
2022/08/29 14:14:42;;;;;;;7.13;2.38;;;;;;;;;;5048276;28;20494;-62
2022/08/29 14:17:09;;;;;;;10.13;2.47;;;;;;;;;;5048583;28;20052;-62
2022/08/29 14:19:35;;;;;;;9.35;2.85;;;;;;;;;;5048705;28;20047;-61
2022/08/29 14:22:01;;;;;;;8.73;2.67;;;;;;;;;;5049102;28;20041;-61
2022/08/29 14:24:28;;;;;;;11.70;2.80;;;;;;;;;;5049094;28;20041;-62
2022/08/29 14:26:54;;;;;;;7.13;2.30;;;;;;;;;;5048457;28;20049;-62
2022/08/29 14:29:22;;;;;;;8.55;2.97;;;;;;;;;;5048631;28;20140;-61
2022/08/29 14:31:49;;;;;;;7.40;2.47;;;;;;;;;;5047472;28;20045;-61
2022/08/29 14:34:15;;;;;;;8.60;2.67;;;;;;;;;;5049219;28;20053;-61
2022/08/29 14:36:41;;;;;;;6.60;2.58;;;;;;;;;;5048837;28;20544;-61
2022/08/29 14:39:07;;;;;;;9.05;2.53;;;;;;;;;;5048327;28;20099;-61
2022/08/29 14:41:33;;;;;;;8.23;3.33;;;;;;;;;;5048721;28;20099;-61
2022/08/29 14:43:59;;;;;;;9.23;3.65;;;;;;;;;;5047608;28;20492;-61
2022/08/29 14:46:26;;;;;;;8.10;2.95;;;;;;;;;;5048693;28;20089;-61
2022/08/29 14:48:52;;;;;;;5.20;2.50;;;;;;;;;;5048556;28;20866;-62
2022/08/29 14:51:18;;;;;;;7.25;2.40;;;;;;;;;;5048171;28;20510;-62
2022/08/29 14:53:44;;;;;;;9.20;2.75;;;;;;;;;;5048805;28;20136;-61